ΕΜΥ, Εθνική Μετεωρολογική Υπηρεσία - Δελτία Καιρού, Προγνώσεις

ΑΕΡΟΝΑΥΤΙΛΙΑ

GREEK AIRPORTS CODES

LGIR 181020Z 07011KT 9999 FEW025 SCT090 25/17 Q1017 NOSIG =

EUROPEAN AIRPORTS CODES

LFPO 181030Z 24017KT 210V270 9999 SCT031 14/07 Q1010 NOSIG=